Time;durP1;ratioP1;P1;durP2;ratioP2;P2;SDS_P1;SDS_P2;PMS_P1;PMS_P2;Temp;Humidity;BMP_temperature;BMP_pressure;BME280_temperature;BME280_humidity;BME280_pressure;Samples;Min_cycle;Max_cycle;Signal;HPM_P1;HPM_P2
2021/03/27 00:01:54;;;;;;;7.20;5.50;;;;;;;11.81;70.81;96321.28;5134705;27;20929;-63
2021/03/27 00:04:27;;;;;;;7.00;6.30;;;;;;;11.94;70.53;96318.38;5118248;27;20429;-62
2021/03/27 00:07:18;;;;;;;7.37;6.77;;;;;;;11.87;71.64;96328.25;5130310;27;20445;-62
2021/03/27 00:09:46;;;;;;;6.33;5.73;;;;;;;11.87;71.36;96323.00;5110170;28;20538;-63
2021/03/27 00:12:32;;;;;;;6.40;5.80;;;;;;;12.08;70.72;96324.97;5133533;27;20897;-62
2021/03/27 00:15:36;;;;;;;5.60;5.10;;;;;;;11.84;70.49;96322.66;5130943;27;20469;-63
2021/03/27 00:18:21;;;;;;;6.10;4.90;;;;;;;11.62;71.04;96329.56;5112245;28;20421;-63
2021/03/27 00:20:58;;;;;;;5.80;5.10;;;;;;;11.74;70.47;96331.16;5112660;28;20443;-63
2021/03/27 00:23:52;;;;;;;6.97;4.80;;;;;;;11.74;70.71;96323.25;5130140;28;20398;-63
2021/03/27 00:26:24;;;;;;;5.87;5.27;;;;;;;11.82;70.87;96296.56;5123756;28;20805;-64
2021/03/27 00:29:20;;;;;;;5.27;4.77;;;;;;;11.83;71.70;96279.75;5133829;27;20426;-63
2021/03/27 00:31:52;;;;;;;6.00;5.33;;;;;;;11.53;74.13;96302.00;5122235;28;20937;-62
2021/03/27 00:34:20;;;;;;;7.53;5.17;;;;;;;11.59;74.28;96303.72;5121009;28;20422;-63
2021/03/27 00:36:55;;;;;;;5.63;5.13;;;;;;;11.45;74.90;96300.53;5133084;27;20437;-63
2021/03/27 00:39:23;;;;;;;5.03;4.50;;;;;;;11.43;75.48;96292.09;5130118;27;20461;-63
2021/03/27 00:42:02;;;;;;;7.40;4.90;;;;;;;11.39;76.44;96291.72;5127065;27;20458;-62
2021/03/27 00:44:40;;;;;;;6.10;5.27;;;;;;;11.43;76.22;96299.19;5113528;28;20410;-63
2021/03/27 00:47:07;;;;;;;6.87;6.17;;;;;;;11.42;76.13;96295.75;5123953;28;20813;-64
2021/03/27 00:49:44;;;;;;;8.40;5.30;;;;;;;11.53;75.61;96294.09;5133598;27;20438;-63
2021/03/27 00:52:13;;;;;;;5.70;5.17;;;;;;;11.64;74.44;96295.91;5125161;27;21020;-63
2021/03/27 00:54:51;;;;;;;5.33;4.87;;;;;;;11.38;74.78;96291.97;5116568;28;20411;-63
2021/03/27 00:57:20;;;;;;;5.83;5.00;;;;;;;11.60;73.74;96292.13;5115303;27;20410;-63
2021/03/27 01:00:04;;;;;;;4.93;4.43;;;;;;;11.44;74.40;96291.06;5124081;27;20492;-63
2021/03/27 01:02:30;;;;;;;5.30;4.80;;;;;;;11.37;75.14;96288.56;5137802;27;20446;-62
2021/03/27 01:04:59;;;;;;;5.37;4.97;;;;;;;11.64;73.46;96291.47;5137221;27;20497;-63
2021/03/27 01:07:26;;;;;;;4.97;4.57;;;;;;;11.82;73.14;96301.84;5126464;27;20414;-63
2021/03/27 01:10:09;;;;;;;6.13;5.00;;;;;;;11.80;73.80;96292.56;5136037;27;21008;-63
2021/03/27 01:12:38;;;;;;;9.80;5.87;;;;;;;11.55;75.47;96303.38;5122955;27;20422;-63
2021/03/27 01:15:23;;;;;;;5.80;5.30;;;;;;;11.21;78.16;96309.50;5126345;27;20418;-63
2021/03/27 01:17:52;;;;;;;6.70;4.80;;;;;;;11.26;79.16;96297.28;5137612;27;20744;-63
2021/03/27 01:20:23;;;;;;;6.70;5.00;;;;;;;10.98;80.73;96301.66;5123697;27;20784;-63
2021/03/27 01:22:51;;;;;;;5.80;4.67;;;;;;;11.07;81.42;96308.16;5117045;28;20485;-63
2021/03/27 01:25:26;;;;;;;5.90;5.40;;;;;;;11.09;81.30;96306.88;5118675;27;20427;-63
2021/03/27 01:28:29;;;;;;;6.33;5.73;;;;;;;10.90;82.22;96318.56;5117599;27;20450;-63
2021/03/27 01:31:50;;;;;;;6.50;5.80;;;;;;;11.05;81.90;96321.50;5137581;27;20722;-63
2021/03/27 01:34:36;;;;;;;5.83;5.23;;;;;;;10.84;83.59;96316.03;5066004;28;20440;-63
2021/03/27 01:37:16;;;;;;;5.90;5.30;;;;;;;10.67;84.29;96321.16;5116537;28;20848;-64
2021/03/27 01:39:52;;;;;;;6.07;5.53;;;;;;;10.66;84.82;96324.81;5116856;27;20441;-63
2021/03/27 01:42:25;;;;;;;5.13;4.73;;;;;;;10.54;86.64;96321.38;5116789;28;20875;-63
2021/03/27 01:45:08;;;;;;;6.40;5.80;;;;;;;10.53;88.13;96317.13;5123336;27;20411;-63
2021/03/27 01:47:50;;;;;;;5.63;5.10;;;;;;;10.43;89.18;96321.34;5136656;27;20472;-63
2021/03/27 01:50:49;;;;;;;5.93;5.33;;;;;;;10.42;89.89;96319.75;5135498;27;21012;-63
2021/03/27 01:53:41;;;;;;;7.00;6.00;;;;;;;10.48;90.42;96324.09;5136494;27;20402;-64
2021/03/27 01:56:14;;;;;;;6.70;5.70;;;;;;;10.32;91.80;96328.97;5131040;27;20898;-63
2021/03/27 01:58:50;;;;;;;5.80;5.30;;;;;;;10.24;92.57;96329.28;5122968;27;20453;-63
2021/03/27 02:01:22;;;;;;;6.50;5.90;;;;;;;9.97;95.38;96328.03;5127387;27;20450;-63
2021/03/27 02:03:48;;;;;;;6.23;5.63;;;;;;;9.84;96.30;96328.19;5120318;27;20528;-63
2021/03/27 02:06:27;;;;;;;7.10;5.60;;;;;;;10.02;95.95;96341.28;5117335;27;20564;-63
2021/03/27 02:09:20;;;;;;;6.43;5.83;;;;;;;10.15;95.54;96343.75;5115543;28;20652;-62
2021/03/27 02:12:08;;;;;;;6.43;5.83;;;;;;;9.96;97.11;96344.00;5116535;28;20544;-64
2021/03/27 02:14:49;;;;;;;6.83;6.00;;;;;;;9.77;98.21;96352.91;5130279;27;20418;-63
2021/03/27 02:17:20;;;;;;;6.93;6.23;;;;;;;9.86;99.16;96346.34;5123318;27;20438;-63
2021/03/27 02:20:22;;;;;;;9.53;6.90;;;;;;;9.80;99.48;96348.00;5118042;27;20992;-63
2021/03/27 02:23:06;;;;;;;6.80;6.20;;;;;;;9.85;100.00;96345.56;5131136;27;20502;-63
2021/03/27 02:25:43;;;;;;;7.97;6.00;;;;;;;9.70;100.00;96347.75;5126342;27;20483;-63
2021/03/27 02:28:42;;;;;;;7.77;6.97;;;;;;;9.88;100.00;96358.22;5118971;27;20792;-63
2021/03/27 02:31:17;;;;;;;6.47;5.83;;;;;;;9.97;100.00;96356.09;5133043;27;20469;-64
2021/03/27 02:34:01;;;;;;;9.00;6.60;;;;;;;9.71;100.00;96367.69;5120758;27;20563;-63
2021/03/27 02:36:43;;;;;;;9.50;7.23;;;;;;;9.70;100.00;96360.88;5115692;28;20406;-63
2021/03/27 02:39:19;;;;;;;7.60;6.20;;;;;;;9.59;100.00;96366.03;5125896;27;20440;-64
2021/03/27 02:41:53;;;;;;;6.13;5.53;;;;;;;9.44;100.00;96376.09;5125688;27;20478;-63
2021/03/27 02:44:31;;;;;;;9.20;7.00;;;;;;;9.70;100.00;96373.97;5126975;27;20429;-64
2021/03/27 02:47:28;;;;;;;8.53;6.73;;;;;;;9.66;100.00;96359.69;5120458;27;20785;-64
2021/03/27 02:50:12;;;;;;;7.33;6.63;;;;;;;9.57;100.00;96342.66;5135769;27;20441;-63
2021/03/27 02:52:55;;;;;;;7.57;6.10;;;;;;;9.63;100.00;96341.78;5134345;27;20792;-63
2021/03/27 02:55:53;;;;;;;6.70;5.93;;;;;;;9.50;100.00;96344.56;5136242;27;20410;-64
2021/03/27 02:58:28;;;;;;;6.63;6.03;;;;;;;9.49;100.00;96348.22;5131992;27;20987;-63
2021/03/27 03:01:11;;;;;;;5.60;5.10;;;;;;;9.76;100.00;96341.63;5135736;27;20464;-63
2021/03/27 03:03:57;;;;;;;9.27;5.87;;;;;;;9.66;100.00;96341.34;5135852;27;20418;-64
2021/03/27 03:06:45;;;;;;;6.63;5.50;;;;;;;9.81;100.00;96347.00;5135898;27;20406;-64
2021/03/27 03:09:18;;;;;;;6.30;5.70;;;;;;;9.88;100.00;96331.97;5135162;27;20427;-63
2021/03/27 03:11:53;;;;;;;5.47;4.97;;;;;;;10.24;100.00;96316.16;5134596;27;20401;-63
2021/03/27 03:14:42;;;;;;;5.03;4.53;;;;;;;9.67;100.00;96332.47;5127284;27;20785;-63
2021/03/27 03:17:45;;;;;;;5.83;5.23;;;;;;;9.63;100.00;96336.53;5135421;27;20477;-62
2021/03/27 03:20:24;;;;;;;6.70;5.47;;;;;;;9.99;100.00;96344.34;5132054;27;20860;-63
2021/03/27 03:23:02;;;;;;;6.20;5.10;;;;;;;9.96;100.00;96347.44;5114849;28;20433;-63
2021/03/27 03:25:30;;;;;;;5.27;4.70;;;;;;;9.83;100.00;96350.22;5114808;28;20407;-63
2021/03/27 03:28:17;;;;;;;6.40;4.80;;;;;;;9.89;100.00;96364.28;5114074;27;20434;-64
2021/03/27 03:31:03;;;;;;;5.37;4.67;;;;;;;10.26;99.24;96369.25;5114827;28;20428;-64
2021/03/27 03:33:46;;;;;;;4.90;4.50;;;;;;;10.30;97.83;96377.50;5115699;27;20430;-64
2021/03/27 03:36:18;;;;;;;5.27;4.37;;;;;;;10.18;97.50;96400.28;5124600;27;20437;-63
2021/03/27 03:39:00;;;;;;;4.23;3.83;;;;;;;9.89;99.12;96409.66;5134587;27;20425;-64
2021/03/27 03:41:43;;;;;;;4.60;3.77;;;;;;;9.88;100.00;96444.00;5135047;27;20459;-64
2021/03/27 03:44:23;;;;;;;5.13;3.37;;;;;;;9.34;100.00;96477.03;5130842;27;20809;-64
2021/03/27 03:47:25;;;;;;;3.57;2.93;;;;;;;9.06;100.00;96488.94;5134887;27;20451;-64
2021/03/27 03:50:20;;;;;;;2.57;1.97;;;;;;;8.67;100.00;96479.53;5133845;27;20870;-64
2021/03/27 03:53:02;;;;;;;0.93;0.90;;;;;;;8.35;100.00;96498.03;5114213;28;20801;-63
2021/03/27 03:55:41;;;;;;;1.00;1.00;;;;;;;8.29;97.76;96497.03;5114655;28;20404;-63
2021/03/27 03:58:24;;;;;;;1.50;1.47;;;;;;;8.23;97.15;96495.22;5113934;28;20433;-64
2021/03/27 04:01:07;;;;;;;0.80;0.80;;;;;;;8.47;96.64;96498.97;5119256;27;21014;-64
2021/03/27 04:03:36;;;;;;;1.10;1.10;;;;;;;8.76;95.04;96495.78;5134574;27;20454;-64
2021/03/27 04:06:06;;;;;;;1.00;1.00;;;;;;;8.20;95.68;96508.72;5134742;27;20832;-64
2021/03/27 04:08:43;;;;;;;1.00;1.00;;;;;;;7.95;96.71;96521.66;5134328;27;20438;-63
2021/03/27 04:11:33;;;;;;;1.20;1.10;;;;;;;7.59;95.50;96531.00;5133228;27;20401;-63
2021/03/27 04:14:03;;;;;;;0.83;0.83;;;;;;;7.72;94.68;96531.78;5114131;28;20431;-63
2021/03/27 04:16:32;;;;;;;7.83;0.90;;;;;;;7.58;94.54;96537.22;5127854;27;20422;-63
2021/03/27 04:19:15;;;;;;;0.80;0.80;;;;;;;7.48;96.74;96542.06;5134009;27;20436;-63
2021/03/27 04:22:06;;;;;;;1.80;0.80;;;;;;;7.64;95.52;96547.69;5134441;27;20502;-63
2021/03/27 04:24:41;;;;;;;1.50;0.90;;;;;;;7.59;94.46;96552.69;5134324;27;20491;-63
2021/03/27 04:27:24;;;;;;;1.40;1.30;;;;;;;7.53;94.98;96545.69;5124725;27;20421;-63
2021/03/27 04:29:55;;;;;;;2.30;1.27;;;;;;;7.41;95.01;96536.03;5115740;28;20457;-63
2021/03/27 04:32:42;;;;;;;0.90;0.70;;;;;;;7.60;95.63;96543.88;5122748;27;20432;-63
2021/03/27 04:35:33;;;;;;;2.80;1.00;;;;;;;7.17;95.61;96566.16;5118314;28;20408;-62
2021/03/27 04:38:15;;;;;;;0.90;0.90;;;;;;;7.20;95.73;96550.09;5117640;28;20414;-65
2021/03/27 04:40:53;;;;;;;0.80;0.80;;;;;;;7.14;94.30;96548.25;5117964;27;20522;-64
2021/03/27 04:43:38;;;;;;;0.83;0.80;;;;;;;7.07;93.86;96576.19;5118323;28;20403;-61
2021/03/27 04:46:09;;;;;;;2.27;1.37;;;;;;;7.11;93.14;96587.84;5119511;27;20431;-62
2021/03/27 04:48:43;;;;;;;2.70;0.67;;;;;;;7.02;92.48;96597.69;5124408;27;20442;-63
2021/03/27 04:51:37;;;;;;;0.63;0.63;;;;;;;6.89;93.32;96607.28;5117915;27;20402;-61
2021/03/27 04:54:36;;;;;;;1.00;0.90;;;;;;;6.95;92.56;96617.75;5117851;28;20436;-62
2021/03/27 04:57:07;;;;;;;1.20;1.10;;;;;;;6.93;92.64;96614.53;5117389;28;20402;-62
2021/03/27 04:59:51;;;;;;;0.97;0.97;;;;;;;6.95;91.41;96633.44;5119397;27;20438;-62
2021/03/27 05:02:25;;;;;;;0.80;0.80;;;;;;;6.82;91.32;96645.63;5133581;27;20569;-63
2021/03/27 05:05:02;;;;;;;1.27;1.17;;;;;;;6.66;92.91;96645.97;5117657;28;20487;-62
2021/03/27 05:07:51;;;;;;;1.00;0.90;;;;;;;6.66;91.63;96653.78;5117304;28;20415;-62
2021/03/27 05:10:33;;;;;;;0.93;0.93;;;;;;;6.72;92.34;96655.63;5108885;28;20759;-62
2021/03/27 05:13:34;;;;;;;0.90;0.90;;;;;;;6.74;90.92;96664.09;5135389;27;20419;-62
2021/03/27 05:16:28;;;;;;;1.80;1.23;;;;;;;6.40;93.35;96666.69;5136558;27;20476;-62
2021/03/27 05:19:11;;;;;;;0.97;0.97;;;;;;;6.44;92.54;96683.59;5108959;28;20448;-62
2021/03/27 05:21:37;;;;;;;0.80;0.80;;;;;;;6.31;94.25;96693.94;5117276;28;20466;-61
2021/03/27 05:24:08;;;;;;;0.90;0.90;;;;;;;6.43;93.41;96701.06;5117156;28;20896;-61
2021/03/27 05:26:34;;;;;;;2.10;1.00;;;;;;;6.55;94.53;96698.72;5117329;28;20174;-61
2021/03/27 05:29:17;;;;;;;1.07;0.77;;;;;;;6.49;92.35;96726.38;5130120;27;20813;-61
2021/03/27 05:31:45;;;;;;;0.77;0.77;;;;;;;6.76;91.67;96725.53;5127916;27;20175;-62
2021/03/27 05:34:21;;;;;;;0.83;0.83;;;;;;;6.69;92.50;96735.16;5120735;27;20960;-62
2021/03/27 05:37:20;;;;;;;1.03;1.03;;;;;;;6.91;91.80;96741.91;5137657;27;20514;-62
2021/03/27 05:39:56;;;;;;;0.83;0.83;;;;;;;6.84;91.54;96748.91;5137374;27;20418;-62
2021/03/27 05:42:51;;;;;;;1.20;1.10;;;;;;;6.79;92.28;96750.47;5123072;27;20474;-62
2021/03/27 05:45:54;;;;;;;0.83;0.83;;;;;;;6.97;88.99;96767.25;5116960;28;20428;-61
2021/03/27 05:48:46;;;;;;;1.07;0.67;;;;;;;6.96;88.89;96788.31;5136484;27;20454;-62
2021/03/27 05:51:55;;;;;;;0.80;0.80;;;;;;;6.38;88.58;96792.13;5137281;27;20879;-62
2021/03/27 05:55:14;;;;;;;1.07;0.80;;;;;;;6.28;88.78;96802.09;5136422;27;20994;-61
2021/03/27 05:58:13;;;;;;;1.90;1.10;;;;;;;6.38;86.91;96812.22;5116262;27;20996;-61
2021/03/27 06:00:53;;;;;;;0.87;0.63;;;;;;;6.34;86.97;96821.41;5115067;28;20821;-61
2021/03/27 06:03:24;;;;;;;2.43;1.10;;;;;;;6.49;85.18;96827.34;5116346;28;20861;-61
2021/03/27 06:06:05;;;;;;;0.87;0.87;;;;;;;6.38;87.08;96828.66;5117553;27;20410;-62
2021/03/27 06:08:39;;;;;;;1.50;0.90;;;;;;;6.40;85.68;96831.09;5128373;27;20437;-62
2021/03/27 06:11:21;;;;;;;0.60;0.60;;;;;;;6.49;86.12;96843.00;5117309;27;20414;-62
2021/03/27 06:13:58;;;;;;;1.33;0.80;;;;;;;6.52;86.36;96845.25;5116215;28;20483;-62
2021/03/27 06:16:48;;;;;;;1.13;0.83;;;;;;;6.22;88.59;96857.63;5116167;28;20899;-62
2021/03/27 06:19:25;;;;;;;0.67;0.67;;;;;;;6.31;90.43;96860.91;5115604;28;20506;-61
2021/03/27 06:22:09;;;;;;;1.83;1.10;;;;;;;6.16;89.83;96853.16;5116129;28;20802;-62
2021/03/27 06:25:16;;;;;;;2.50;0.80;;;;;;;6.56;89.92;96856.94;5119598;27;20424;-61
2021/03/27 06:27:47;;;;;;;1.60;0.80;;;;;;;6.33;92.12;96874.59;5100951;28;20412;-61
2021/03/27 06:30:31;;;;;;;1.47;0.70;;;;;;;6.24;92.88;96866.91;5115779;28;20420;-61
2021/03/27 06:33:08;;;;;;;1.00;0.90;;;;;;;6.33;91.79;96877.19;5116725;27;20449;-60
2021/03/27 06:35:47;;;;;;;1.57;1.10;;;;;;;6.39;92.60;96872.06;5115775;28;20876;-61
2021/03/27 06:38:49;;;;;;;1.53;1.00;;;;;;;6.46;91.22;96885.97;5115322;28;20435;-61
2021/03/27 06:41:52;;;;;;;2.30;1.10;;;;;;;6.35;89.09;96890.88;5115547;28;20992;-62
2021/03/27 06:44:33;;;;;;;1.77;0.70;;;;;;;6.41;88.40;96892.75;5133374;27;20914;-62
2021/03/27 06:47:16;;;;;;;1.83;1.53;;;;;;;6.47;84.85;96900.63;5135692;27;20512;-62
2021/03/27 06:50:06;;;;;;;1.83;1.00;;;;;;;6.49;84.98;96908.25;5136124;27;20568;-61
2021/03/27 06:52:43;;;;;;;1.30;1.20;;;;;;;6.14;84.00;96918.53;5134948;27;20421;-62
2021/03/27 06:55:47;;;;;;;2.37;1.03;;;;;;;6.44;84.57;96919.28;5134878;27;20770;-61
2021/03/27 06:58:52;;;;;;;1.03;0.93;;;;;;;6.51;83.86;96920.13;5114775;27;20457;-61
2021/03/27 07:01:55;;;;;;;3.90;1.30;;;;;;;6.43;82.32;96924.69;5135879;27;20957;-61
2021/03/27 07:04:26;;;;;;;1.30;1.20;;;;;;;6.68;81.56;96931.16;5097953;27;20911;-61
2021/03/27 07:07:14;;;;;;;2.50;0.93;;;;;;;6.39;79.93;96924.25;5114966;28;20419;-62
2021/03/27 07:10:07;;;;;;;2.30;1.07;;;;;;;6.35;80.02;96930.81;5114895;28;20491;-62
2021/03/27 07:13:01;;;;;;;1.17;0.80;;;;;;;6.40;81.51;96938.91;5115247;28;20412;-61
2021/03/27 07:15:53;;;;;;;2.00;0.70;;;;;;;6.58;77.77;96949.72;5059841;28;20425;-61
2021/03/27 07:18:59;;;;;;;4.20;0.90;;;;;;;6.62;74.08;96942.31;5116760;27;20537;-62
2021/03/27 07:21:27;;;;;;;1.53;0.70;;;;;;;6.83;74.82;96942.34;5114904;28;20648;-62
2021/03/27 07:24:20;;;;;;;1.03;0.80;;;;;;;6.82;73.58;96943.31;5114736;28;20466;-62
2021/03/27 07:27:22;;;;;;;1.37;0.70;;;;;;;6.84;74.62;96949.97;5114730;28;20386;-62
2021/03/27 07:30:26;;;;;;;3.50;2.20;;;;;;;6.80;73.04;96960.97;5114716;28;20920;-62
2021/03/27 07:32:57;;;;;;;2.53;1.00;;;;;;;6.94;74.67;96953.06;5111220;27;20510;-62
2021/03/27 07:35:28;;;;;;;1.83;1.00;;;;;;;7.07;72.23;96949.75;5135021;27;20458;-62
2021/03/27 07:38:12;;;;;;;1.47;0.80;;;;;;;7.32;71.44;96943.91;5119154;27;20835;-62
2021/03/27 07:40:54;;;;;;;1.00;0.73;;;;;;;7.13;72.48;96952.44;5114369;28;20794;-62
2021/03/27 07:43:34;;;;;;;0.97;0.60;;;;;;;7.01;69.19;96953.13;5114499;28;20415;-62
2021/03/27 07:46:15;;;;;;;1.27;0.93;;;;;;;7.04;69.54;96963.19;5134886;27;20428;-63
2021/03/27 07:49:14;;;;;;;3.60;1.10;;;;;;;7.19;69.42;96953.50;5133618;27;20456;-62
2021/03/27 07:51:51;;;;;;;1.90;0.90;;;;;;;7.66;69.05;96960.63;5116251;27;20415;-62
2021/03/27 07:54:48;;;;;;;1.43;1.07;;;;;;;7.67;67.65;96965.66;5114360;28;20438;-63
2021/03/27 07:57:34;;;;;;;1.70;0.87;;;;;;;7.44;66.02;96972.97;5122052;27;20419;-63
2021/03/27 08:00:02;;;;;;;0.57;0.57;;;;;;;7.45;67.00;96982.41;5134553;27;20406;-65
2021/03/27 08:02:54;;;;;;;0.80;0.70;;;;;;;7.18;69.31;96985.81;5134323;27;20452;-63
2021/03/27 08:05:41;;;;;;;1.70;0.70;;;;;;;7.20;68.80;96989.06;5134815;27;20403;-65
2021/03/27 08:08:25;;;;;;;1.00;0.57;;;;;;;7.39;68.56;97003.28;5123131;27;20454;-63
2021/03/27 08:11:02;;;;;;;1.50;0.83;;;;;;;7.61;68.69;96997.81;5123906;27;20482;-63
2021/03/27 08:13:49;;;;;;;1.87;0.70;;;;;;;7.53;67.98;96995.34;5124944;27;20952;-62
2021/03/27 08:16:40;;;;;;;0.60;0.60;;;;;;;7.48;67.86;96995.13;5139554;27;20421;-63
2021/03/27 08:19:25;;;;;;;3.33;0.80;;;;;;;7.26;68.67;97010.00;5146783;27;20447;-62
2021/03/27 08:22:03;;;;;;;1.90;1.00;;;;;;;7.18;65.92;97006.72;5149515;27;20456;-63
2021/03/27 08:24:49;;;;;;;1.63;0.60;;;;;;;7.10;66.73;97007.66;5134252;27;20416;-63
2021/03/27 08:27:42;;;;;;;1.07;0.70;;;;;;;7.43;66.47;97012.38;5133584;27;20937;-63
2021/03/27 08:30:32;;;;;;;0.80;0.80;;;;;;;7.39;65.50;97013.75;5120399;27;20440;-65
2021/03/27 08:33:16;;;;;;;2.40;0.80;;;;;;;7.11;64.76;97034.59;5113758;28;20405;-66
2021/03/27 08:36:06;;;;;;;1.47;0.80;;;;;;;7.34;61.11;97031.81;5113839;28;20438;-66
2021/03/27 08:38:41;;;;;;;1.13;0.70;;;;;;;6.86;59.66;97026.34;5112814;28;20424;-65
2021/03/27 08:41:44;;;;;;;1.20;0.60;;;;;;;6.96;59.26;97023.41;5116854;28;20458;-63
2021/03/27 08:44:51;;;;;;;1.43;0.53;;;;;;;7.02;56.74;97022.66;5134319;27;20400;-64
2021/03/27 08:47:35;;;;;;;0.90;0.67;;;;;;;6.62;57.05;97025.84;5065867;28;20431;-66
2021/03/27 08:50:26;;;;;;;1.30;0.53;;;;;;;6.65;56.93;97030.72;5123011;28;20434;-62
2021/03/27 08:53:23;;;;;;;0.80;0.67;;;;;;;6.83;55.34;97031.91;5102252;27;20900;-63
2021/03/27 08:56:06;;;;;;;0.87;0.60;;;;;;;6.79;55.68;97033.31;5132508;27;20834;-66
2021/03/27 08:58:49;;;;;;;1.40;0.67;;;;;;;6.91;55.63;97038.81;5131511;27;20453;-66
2021/03/27 09:01:28;;;;;;;0.83;0.80;;;;;;;6.89;53.08;97036.41;5127769;27;20599;-63
2021/03/27 09:04:14;;;;;;;1.27;0.70;;;;;;;7.04;53.51;97042.41;5113481;28;20431;-66
2021/03/27 09:06:48;;;;;;;0.70;0.70;;;;;;;7.28;53.56;97038.59;5113637;28;20409;-63
2021/03/27 09:09:36;;;;;;;1.27;0.60;;;;;;;7.39;53.72;97043.31;5113074;28;20435;-64
2021/03/27 09:12:16;;;;;;;2.40;0.80;;;;;;;7.26;54.77;97046.59;5114482;28;20510;-66
2021/03/27 09:15:13;;;;;;;2.37;0.70;;;;;;;7.48;53.10;97038.75;5113589;28;20488;-66
2021/03/27 09:18:09;;;;;;;0.80;0.60;;;;;;;7.58;53.06;97050.50;5129859;27;21305;-63
2021/03/27 09:21:27;;;;;;;1.37;0.60;;;;;;;7.74;53.98;97049.38;5134153;27;20925;-65
2021/03/27 09:23:52;;;;;;;0.60;0.60;;;;;;;7.94;55.24;97040.69;5070454;28;20441;-66
2021/03/27 09:26:51;;;;;;;0.80;0.80;;;;;;;7.89;53.43;97048.31;5069623;28;20509;-65
2021/03/27 09:29:26;;;;;;;1.07;0.60;;;;;;;8.01;53.33;97059.03;5069703;28;20209;-65
2021/03/27 09:32:11;;;;;;;2.30;0.70;;;;;;;8.37;53.43;97058.88;5070315;28;20408;-65
2021/03/27 09:35:00;;;;;;;1.27;0.70;;;;;;;8.53;53.47;97059.34;5070192;28;20425;-64
2021/03/27 09:37:54;;;;;;;0.93;0.73;;;;;;;8.32;52.03;97060.25;5069799;28;20416;-64
2021/03/27 09:40:44;;;;;;;2.30;0.93;;;;;;;8.27;50.98;97069.69;5064385;28;20856;-65
2021/03/27 09:43:43;;;;;;;0.83;0.83;;;;;;;8.31;50.82;97063.84;5058953;28;20471;-65
2021/03/27 09:46:47;;;;;;;2.57;0.87;;;;;;;8.80;50.21;97066.31;5061814;28;20437;-64
2021/03/27 09:49:30;;;;;;;1.67;0.87;;;;;;;8.71;49.37;97085.00;5044833;28;20463;-65
2021/03/27 09:52:08;;;;;;;2.00;0.90;;;;;;;8.96;49.59;97075.59;5049999;28;20433;-65
2021/03/27 09:54:45;;;;;;;0.70;0.70;;;;;;;8.90;49.63;97087.69;5092044;28;21040;-64
2021/03/27 09:57:19;;;;;;;0.70;0.70;;;;;;;8.97;47.66;97087.69;5117759;27;20415;-65
2021/03/27 09:59:46;;;;;;;1.13;0.83;;;;;;;9.06;47.90;97092.56;5129765;27;20466;-65
2021/03/27 10:02:47;;;;;;;1.57;0.60;;;;;;;9.37;48.40;97099.88;5112852;28;20514;-63
2021/03/27 10:05:24;;;;;;;1.47;0.70;;;;;;;9.22;48.51;97099.28;5114568;27;20554;-65
2021/03/27 10:08:08;;;;;;;0.60;0.50;;;;;;;8.93;49.26;97112.69;5113198;27;20425;-63
2021/03/27 10:10:56;;;;;;;1.90;0.77;;;;;;;9.04;48.93;97105.06;5113786;27;20426;-64
2021/03/27 10:13:49;;;;;;;1.03;0.90;;;;;;;9.20;48.83;97106.53;5122137;27;20805;-65
2021/03/27 10:16:36;;;;;;;1.33;0.73;;;;;;;9.29;47.80;97106.13;5123230;27;20426;-63
2021/03/27 10:19:16;;;;;;;0.60;0.60;;;;;;;9.15;45.95;97122.03;5113246;27;20807;-64
2021/03/27 10:21:58;;;;;;;0.43;0.43;;;;;;;9.07;44.70;97127.47;5115410;27;20456;-66
2021/03/27 10:24:39;;;;;;;0.93;0.60;;;;;;;9.10;44.48;97106.91;5116032;28;20815;-64
2021/03/27 10:27:23;;;;;;;2.83;0.60;;;;;;;9.56;46.20;97114.84;5115956;27;20418;-64
2021/03/27 10:30:05;;;;;;;1.67;0.80;;;;;;;9.67;45.45;97119.50;5114575;28;20451;-64
2021/03/27 10:32:46;;;;;;;2.37;0.70;;;;;;;9.51;44.66;97134.81;5115855;28;20404;-60
2021/03/27 10:35:21;;;;;;;0.60;0.50;;;;;;;9.29;46.53;97124.47;5121872;27;20482;-58
2021/03/27 10:37:46;;;;;;;0.60;0.60;;;;;;;9.35;46.44;97117.63;5126615;27;20442;-58
2021/03/27 10:40:45;;;;;;;1.80;0.70;;;;;;;9.21;44.13;97136.97;5115426;28;20441;-62
2021/03/27 10:43:13;;;;;;;1.07;0.60;;;;;;;9.39;43.13;97126.72;5104058;28;20557;-63
2021/03/27 10:46:03;;;;;;;1.23;0.63;;;;;;;9.00;42.68;97145.78;5115700;28;20460;-63
2021/03/27 10:49:05;;;;;;;0.97;0.70;;;;;;;8.90;42.96;97152.38;5114970;28;20444;-64
2021/03/27 10:52:08;;;;;;;0.70;0.60;;;;;;;8.66;45.73;97161.53;5116805;27;20424;-59
2021/03/27 10:54:42;;;;;;;1.17;0.53;;;;;;;8.78;43.65;97149.53;5117887;27;20895;-65
2021/03/27 10:57:13;;;;;;;0.90;0.90;;;;;;;9.22;44.10;97157.75;5135503;27;20444;-60
2021/03/27 10:59:56;;;;;;;1.17;0.60;;;;;;;9.24;43.62;97157.53;5135727;27;20938;-65
2021/03/27 11:02:47;;;;;;;1.37;0.70;;;;;;;9.38;45.00;97141.66;5135708;27;20491;-60
2021/03/27 11:05:23;;;;;;;1.73;0.60;;;;;;;9.42;44.67;97184.00;5135084;27;20769;-60
2021/03/27 11:08:09;;;;;;;0.87;0.60;;;;;;;9.68;44.10;97146.53;5120443;27;20436;-59
2021/03/27 11:11:07;;;;;;;1.07;0.80;;;;;;;9.34;43.94;97150.94;5126654;27;20419;-67
2021/03/27 11:13:45;;;;;;;0.70;0.70;;;;;;;9.41;44.59;97139.63;5115200;28;20406;-62
2021/03/27 11:16:31;;;;;;;0.87;0.70;;;;;;;9.96;44.42;97140.13;5133538;27;20774;-62
2021/03/27 11:19:27;;;;;;;1.00;0.60;;;;;;;10.68;44.79;97137.41;5134911;27;20512;-61
2021/03/27 11:22:20;;;;;;;3.70;1.03;;;;;;;10.77;42.10;97144.03;5135465;27;20457;-61
2021/03/27 11:25:04;;;;;;;2.83;0.80;;;;;;;10.11;42.12;97148.59;5129069;27;20423;-61
2021/03/27 11:27:51;;;;;;;0.80;0.67;;;;;;;10.19;42.57;97139.72;5122318;27;20418;-61
2021/03/27 11:30:29;;;;;;;1.67;0.70;;;;;;;10.28;42.03;97136.69;5133550;27;20516;-61
2021/03/27 11:32:59;;;;;;;2.50;0.77;;;;;;;10.25;43.24;97137.06;5114732;28;20407;-66
2021/03/27 11:35:44;;;;;;;1.07;0.80;;;;;;;10.01;42.45;97152.63;5127581;27;20847;-64
2021/03/27 11:38:57;;;;;;;0.93;0.80;;;;;;;10.48;43.52;97146.34;5131402;27;20433;-62
2021/03/27 11:41:32;;;;;;;3.03;1.00;;;;;;;10.16;42.86;97153.25;5080009;28;20473;-72
2021/03/27 11:44:23;;;;;;;1.20;0.70;;;;;;;10.56;43.02;97146.94;5131617;27;20498;-61
2021/03/27 11:46:59;;;;;;;0.97;0.83;;;;;;;10.33;42.17;97147.38;5134906;27;20548;-61
2021/03/27 11:49:48;;;;;;;2.57;0.90;;;;;;;10.24;43.07;97143.34;5115170;27;20431;-61
2021/03/27 11:52:55;;;;;;;2.40;1.00;;;;;;;10.41;43.53;97151.63;5114070;28;20394;-61
2021/03/27 11:55:33;;;;;;;2.70;1.10;;;;;;;9.88;43.05;97158.69;5125807;27;20453;-61
2021/03/27 11:58:26;;;;;;;1.50;0.80;;;;;;;9.46;43.64;97159.00;5134341;27;20488;-61
2021/03/27 12:01:01;;;;;;;1.53;0.90;;;;;;;9.41;44.89;97158.00;5134511;27;20798;-61
2021/03/27 12:04:01;;;;;;;1.17;0.70;;;;;;;9.33;44.79;97157.16;5134835;27;20404;-62
2021/03/27 12:06:50;;;;;;;2.87;1.20;;;;;;;9.25;45.11;97152.13;5134302;27;20518;-60
2021/03/27 12:09:23;;;;;;;1.23;0.80;;;;;;;9.25;43.65;97162.63;5131166;27;20435;-61
2021/03/27 12:11:52;;;;;;;1.90;0.80;;;;;;;9.43;44.79;97158.59;5119333;27;20861;-61
2021/03/27 12:14:33;;;;;;;1.87;0.80;;;;;;;9.44;44.68;97158.41;5122963;27;20432;-61
2021/03/27 12:17:34;;;;;;;4.10;1.30;;;;;;;9.58;43.47;97149.56;5134100;27;20417;-61
2021/03/27 12:20:18;;;;;;;2.10;0.80;;;;;;;9.46;44.23;97156.38;5102751;27;20443;-61
2021/03/27 12:22:51;;;;;;;1.00;1.00;;;;;;;9.64;43.64;97156.63;5126950;27;20465;-60
2021/03/27 12:25:34;;;;;;;2.67;0.83;;;;;;;9.72;44.69;97160.88;5113957;28;20402;-61
2021/03/27 12:28:04;;;;;;;1.90;1.10;;;;;;;9.73;44.12;97168.53;5113419;28;20408;-61
2021/03/27 12:30:35;;;;;;;1.67;0.90;;;;;;;9.64;44.61;97155.84;5130442;27;20423;-59
2021/03/27 12:33:10;;;;;;;4.50;1.00;;;;;;;9.66;44.94;97162.47;5111935;27;20422;-61
2021/03/27 12:35:44;;;;;;;2.00;0.80;;;;;;;9.98;44.93;97164.31;5123839;27;20422;-61
2021/03/27 12:38:34;;;;;;;1.93;1.10;;;;;;;10.10;43.34;97154.88;5115838;28;20507;-61
2021/03/27 12:41:20;;;;;;;1.37;1.17;;;;;;;10.00;43.22;97161.53;5111105;28;20477;-61
2021/03/27 12:43:50;;;;;;;2.20;0.87;;;;;;;9.92;43.25;97169.59;5109609;28;20500;-62
2021/03/27 12:46:33;;;;;;;2.03;0.87;;;;;;;9.75;42.69;97174.41;5110109;28;20775;-61
2021/03/27 12:49:24;;;;;;;3.17;1.03;;;;;;;9.70;43.07;97166.34;5110919;28;20470;-60
2021/03/27 12:51:58;;;;;;;1.03;0.73;;;;;;;9.66;43.67;97167.72;5110126;28;20871;-61
2021/03/27 12:54:37;;;;;;;1.70;0.90;;;;;;;10.02;42.30;97169.97;5127295;27;20415;-61
2021/03/27 12:57:10;;;;;;;1.50;1.40;;;;;;;9.99;42.55;97170.38;5127256;27;20490;-62